sensor_id;sensor_type;location;lat;lon;timestamp;temperature;humidity
13665;DHT22;6905;50.770;6.730;2022-09-11T09:56:54;21.00;99.90
13665;DHT22;6905;50.770;6.730;2022-09-11T10:02:39;20.90;99.90
13665;DHT22;6905;50.770;6.730;2022-09-11T11:13:41;24.10;99.90
13665;DHT22;6905;50.770;6.730;2022-09-11T11:19:50;24.10;99.90
13665;DHT22;6905;50.770;6.730;2022-09-11T11:22:45;24.50;99.90
13665;DHT22;6905;50.770;6.730;2022-09-11T11:25:38;24.90;99.90
13665;DHT22;6905;50.770;6.730;2022-09-11T11:28:25;24.90;99.90
13665;DHT22;6905;50.770;6.730;2022-09-11T11:49:03;25.70;99.90
13665;DHT22;6905;50.770;6.730;2022-09-11T11:51:32;25.70;99.90
13665;DHT22;6905;50.770;6.730;2022-09-11T11:54:02;25.40;99.90
13665;DHT22;6905;50.770;6.730;2022-09-11T11:56:33;25.40;99.90
13665;DHT22;6905;50.770;6.730;2022-09-11T11:59:08;25.90;99.90
13665;DHT22;6905;50.770;6.730;2022-09-11T12:01:40;25.90;99.90
13665;DHT22;6905;50.770;6.730;2022-09-11T12:07:05;25.90;99.90
13665;DHT22;6905;50.770;6.730;2022-09-11T12:12:47;26.00;99.90
13665;DHT22;6905;50.770;6.730;2022-09-11T12:15:30;26.30;99.90
13665;DHT22;6905;50.770;6.730;2022-09-11T12:18:00;26.40;99.90
13665;DHT22;6905;50.770;6.730;2022-09-11T12:26:22;26.90;99.90
13665;DHT22;6905;50.770;6.730;2022-09-11T12:34:58;27.40;99.90
13665;DHT22;6905;50.770;6.730;2022-09-11T12:37:56;27.60;99.90
13665;DHT22;6905;50.770;6.730;2022-09-11T12:40:46;28.00;99.90
13665;DHT22;6905;50.770;6.730;2022-09-11T12:43:25;28.30;99.90
13665;DHT22;6905;50.770;6.730;2022-09-11T12:46:09;28.50;99.90
13665;DHT22;6905;50.770;6.730;2022-09-11T12:48:53;28.60;99.90
13665;DHT22;6905;50.770;6.730;2022-09-11T12:51:36;29.00;99.90
13665;DHT22;6905;50.770;6.730;2022-09-11T12:54:10;29.10;99.90
13665;DHT22;6905;50.770;6.730;2022-09-11T12:56:57;29.10;99.90
13665;DHT22;6905;50.770;6.730;2022-09-11T12:59:30;29.20;99.90
13665;DHT22;6905;50.770;6.730;2022-09-11T13:02:02;29.50;99.90
13665;DHT22;6905;50.770;6.730;2022-09-11T13:04:52;29.70;99.90
13665;DHT22;6905;50.770;6.730;2022-09-11T13:07:23;29.70;99.90
13665;DHT22;6905;50.770;6.730;2022-09-11T13:09:50;29.90;99.90
13665;DHT22;6905;50.770;6.730;2022-09-11T13:23:55;31.40;99.90
13665;DHT22;6905;50.770;6.730;2022-09-11T13:29:36;31.20;99.90
13665;DHT22;6905;50.770;6.730;2022-09-11T13:32:04;31.30;99.90
13665;DHT22;6905;50.770;6.730;2022-09-11T13:34:35;31.50;99.90
13665;DHT22;6905;50.770;6.730;2022-09-11T13:49:21;32.00;99.90
13665;DHT22;6905;50.770;6.730;2022-09-11T13:51:50;32.20;99.90
13665;DHT22;6905;50.770;6.730;2022-09-11T13:54:17;32.20;99.90
13665;DHT22;6905;50.770;6.730;2022-09-11T14:15:10;31.70;99.90
13665;DHT22;6905;50.770;6.730;2022-09-11T14:17:44;31.60;99.10
13665;DHT22;6905;50.770;6.730;2022-09-11T14:20:10;31.50;99.60
13665;DHT22;6905;50.770;6.730;2022-09-11T14:22:40;31.70;99.10
13665;DHT22;6905;50.770;6.730;2022-09-11T14:31:27;31.40;99.50
13665;DHT22;6905;50.770;6.730;2022-09-11T14:34:14;31.40;99.30
13665;DHT22;6905;50.770;6.730;2022-09-11T14:36:43;31.40;97.00
13665;DHT22;6905;50.770;6.730;2022-09-11T15:04:03;32.20;96.50
13665;DHT22;6905;50.770;6.730;2022-09-11T15:06:33;32.20;94.20
13665;DHT22;6905;50.770;6.730;2022-09-11T15:15:25;31.80;93.80
13665;DHT22;6905;50.770;6.730;2022-09-11T15:17:52;31.90;92.00
13665;DHT22;6905;50.770;6.730;2022-09-11T15:23:50;32.10;93.40
13665;DHT22;6905;50.770;6.730;2022-09-11T15:26:19;31.90;93.30
13665;DHT22;6905;50.770;6.730;2022-09-11T15:41:13;31.80;94.00
13665;DHT22;6905;50.770;6.730;2022-09-11T16:21:16;29.60;95.50
13665;DHT22;6905;50.770;6.730;2022-09-11T16:23:43;29.50;94.70
13665;DHT22;6905;50.770;6.730;2022-09-11T16:26:13;29.20;95.20
13665;DHT22;6905;50.770;6.730;2022-09-11T16:28:50;28.60;96.00
13665;DHT22;6905;50.770;6.730;2022-09-11T16:34:28;28.30;97.70
13665;DHT22;6905;50.770;6.730;2022-09-11T16:36:59;28.00;97.90
13665;DHT22;6905;50.770;6.730;2022-09-11T16:39:26;27.80;98.70
13665;DHT22;6905;50.770;6.730;2022-09-11T16:42:12;27.70;98.00
13665;DHT22;6905;50.770;6.730;2022-09-11T16:44:45;27.60;98.80
13665;DHT22;6905;50.770;6.730;2022-09-11T16:47:12;27.50;99.30
13665;DHT22;6905;50.770;6.730;2022-09-11T16:49:41;27.20;99.80
13665;DHT22;6905;50.770;6.730;2022-09-11T16:52:12;26.80;99.90
13665;DHT22;6905;50.770;6.730;2022-09-11T16:54:42;26.80;99.90
13665;DHT22;6905;50.770;6.730;2022-09-11T16:57:09;26.60;99.90
13665;DHT22;6905;50.770;6.730;2022-09-11T16:59:42;26.60;99.90
13665;DHT22;6905;50.770;6.730;2022-09-11T17:05:12;26.30;99.90
13665;DHT22;6905;50.770;6.730;2022-09-11T17:07:48;26.20;99.90
13665;DHT22;6905;50.770;6.730;2022-09-11T17:10:18;25.90;99.90
13665;DHT22;6905;50.770;6.730;2022-09-11T17:13:08;25.70;99.90
13665;DHT22;6905;50.770;6.730;2022-09-11T17:16:01;25.60;99.90
13665;DHT22;6905;50.770;6.730;2022-09-11T17:18:31;25.50;99.90
13665;DHT22;6905;50.770;6.730;2022-09-11T17:21:02;25.40;99.90
13665;DHT22;6905;50.770;6.730;2022-09-11T17:23:36;25.30;99.90
13665;DHT22;6905;50.770;6.730;2022-09-11T17:26:08;25.20;99.90
13665;DHT22;6905;50.770;6.730;2022-09-11T17:28:52;25.10;99.90
13665;DHT22;6905;50.770;6.730;2022-09-11T17:34:19;24.80;99.90
13665;DHT22;6905;50.770;6.730;2022-09-11T17:43:22;24.50;99.90
13665;DHT22;6905;50.770;6.730;2022-09-11T17:45:58;24.30;99.90
13665;DHT22;6905;50.770;6.730;2022-09-11T17:48:30;24.20;99.90
13665;DHT22;6905;50.770;6.730;2022-09-11T17:51:15;24.10;99.90
13665;DHT22;6905;50.770;6.730;2022-09-11T17:53:53;24.00;99.90
13665;DHT22;6905;50.770;6.730;2022-09-11T17:56:32;23.80;99.90
13665;DHT22;6905;50.770;6.730;2022-09-11T17:59:12;23.70;99.90
13665;DHT22;6905;50.770;6.730;2022-09-11T18:01:55;23.60;99.90
13665;DHT22;6905;50.770;6.730;2022-09-11T18:04:26;23.50;99.90
13665;DHT22;6905;50.770;6.730;2022-09-11T18:07:09;23.40;99.90
13665;DHT22;6905;50.770;6.730;2022-09-11T18:09:43;23.20;99.90
13665;DHT22;6905;50.770;6.730;2022-09-11T18:12:26;23.10;99.90
13665;DHT22;6905;50.770;6.730;2022-09-11T18:18:17;22.90;99.90
13665;DHT22;6905;50.770;6.730;2022-09-11T18:21:02;22.80;99.90
13665;DHT22;6905;50.770;6.730;2022-09-11T18:23:47;22.70;99.90
13665;DHT22;6905;50.770;6.730;2022-09-11T18:26:30;22.50;99.90
13665;DHT22;6905;50.770;6.730;2022-09-11T18:29:05;22.40;99.90
13665;DHT22;6905;50.770;6.730;2022-09-11T18:35:10;22.20;99.90
13665;DHT22;6905;50.770;6.730;2022-09-11T18:37:36;22.10;99.90
13665;DHT22;6905;50.770;6.730;2022-09-11T18:40:04;22.00;99.90
13665;DHT22;6905;50.770;6.730;2022-09-11T18:42:31;21.90;99.90
13665;DHT22;6905;50.770;6.730;2022-09-11T18:45:00;21.80;99.90
13665;DHT22;6905;50.770;6.730;2022-09-11T18:47:29;21.70;99.90
13665;DHT22;6905;50.770;6.730;2022-09-11T18:50:25;21.60;99.90
13665;DHT22;6905;50.770;6.730;2022-09-11T18:52:53;21.50;99.90
13665;DHT22;6905;50.770;6.730;2022-09-11T18:55:30;21.50;99.90
13665;DHT22;6905;50.770;6.730;2022-09-11T18:58:12;21.30;99.90
13665;DHT22;6905;50.770;6.730;2022-09-11T19:00:43;21.20;99.90
13665;DHT22;6905;50.770;6.730;2022-09-11T19:03:46;21.20;99.90
13665;DHT22;6905;50.770;6.730;2022-09-11T19:06:34;21.00;99.90
13665;DHT22;6905;50.770;6.730;2022-09-11T19:12:15;20.90;99.90
13665;DHT22;6905;50.770;6.730;2022-09-11T19:14:57;20.70;99.90
13665;DHT22;6905;50.770;6.730;2022-09-11T19:17:40;20.70;99.90
13665;DHT22;6905;50.770;6.730;2022-09-11T19:26:33;20.40;99.90
13665;DHT22;6905;50.770;6.730;2022-09-11T19:29:16;20.40;99.90
13665;DHT22;6905;50.770;6.730;2022-09-11T19:32:13;20.30;99.90
13665;DHT22;6905;50.770;6.730;2022-09-11T19:38:05;20.10;99.90
13665;DHT22;6905;50.770;6.730;2022-09-11T19:40:58;20.00;99.90
13665;DHT22;6905;50.770;6.730;2022-09-11T20:10:45;19.10;99.90
13665;DHT22;6905;50.770;6.730;2022-09-11T20:13:22;19.10;99.90
13665;DHT22;6905;50.770;6.730;2022-09-11T20:19:18;19.00;99.90
13665;DHT22;6905;50.770;6.730;2022-09-11T20:25:02;18.80;99.90
13665;DHT22;6905;50.770;6.730;2022-09-11T20:30:38;18.60;99.90
13665;DHT22;6905;50.770;6.730;2022-09-11T20:33:39;18.60;99.90
13665;DHT22;6905;50.770;6.730;2022-09-11T20:36:32;18.50;99.90
13665;DHT22;6905;50.770;6.730;2022-09-11T20:39:38;18.50;99.90
13665;DHT22;6905;50.770;6.730;2022-09-11T20:42:20;18.40;99.90
13665;DHT22;6905;50.770;6.730;2022-09-11T20:45:05;18.30;99.90
13665;DHT22;6905;50.770;6.730;2022-09-11T20:50:55;18.20;99.90
13665;DHT22;6905;50.770;6.730;2022-09-11T20:54:10;18.10;99.90
13665;DHT22;6905;50.770;6.730;2022-09-11T20:57:14;18.00;99.90
13665;DHT22;6905;50.770;6.730;2022-09-11T21:00:02;18.00;99.90
13665;DHT22;6905;50.770;6.730;2022-09-11T21:03:04;17.90;99.90
13665;DHT22;6905;50.770;6.730;2022-09-11T21:06:03;17.80;99.90
13665;DHT22;6905;50.770;6.730;2022-09-11T21:08:52;17.70;99.90
13665;DHT22;6905;50.770;6.730;2022-09-11T21:12:02;17.70;99.90
13665;DHT22;6905;50.770;6.730;2022-09-11T21:15:08;17.70;99.90
13665;DHT22;6905;50.770;6.730;2022-09-11T21:17:54;17.60;99.90
13665;DHT22;6905;50.770;6.730;2022-09-11T21:20:59;17.60;99.90
13665;DHT22;6905;50.770;6.730;2022-09-11T21:23:52;17.50;99.90
13665;DHT22;6905;50.770;6.730;2022-09-11T21:26:35;17.50;99.90
13665;DHT22;6905;50.770;6.730;2022-09-11T21:29:29;17.40;99.90
13665;DHT22;6905;50.770;6.730;2022-09-11T21:32:42;17.40;99.90
13665;DHT22;6905;50.770;6.730;2022-09-11T21:45:00;17.00;99.90
13665;DHT22;6905;50.770;6.730;2022-09-11T21:47:50;17.00;99.90
13665;DHT22;6905;50.770;6.730;2022-09-11T21:53:32;16.90;99.90
13665;DHT22;6905;50.770;6.730;2022-09-11T21:56:22;16.90;99.90
13665;DHT22;6905;50.770;6.730;2022-09-11T21:59:05;16.90;99.90
13665;DHT22;6905;50.770;6.730;2022-09-11T22:19:44;16.70;99.90
13665;DHT22;6905;50.770;6.730;2022-09-11T22:22:31;16.60;99.90
13665;DHT22;6905;50.770;6.730;2022-09-11T22:25:18;16.60;99.90
13665;DHT22;6905;50.770;6.730;2022-09-11T22:28:03;16.60;99.90
13665;DHT22;6905;50.770;6.730;2022-09-11T22:30:47;16.60;99.90
13665;DHT22;6905;50.770;6.730;2022-09-11T22:33:29;16.60;99.90
13665;DHT22;6905;50.770;6.730;2022-09-11T23:00:13;16.10;99.90
13665;DHT22;6905;50.770;6.730;2022-09-11T23:03:13;16.10;99.90
13665;DHT22;6905;50.770;6.730;2022-09-11T23:06:10;16.00;99.90
13665;DHT22;6905;50.770;6.730;2022-09-11T23:09:17;16.00;99.90
13665;DHT22;6905;50.770;6.730;2022-09-11T23:12:27;15.90;99.90
13665;DHT22;6905;50.770;6.730;2022-09-11T23:15:21;15.90;99.90
13665;DHT22;6905;50.770;6.730;2022-09-11T23:18:26;15.90;99.90
13665;DHT22;6905;50.770;6.730;2022-09-11T23:21:31;15.90;99.90
13665;DHT22;6905;50.770;6.730;2022-09-11T23:27:12;15.80;99.90
13665;DHT22;6905;50.770;6.730;2022-09-11T23:29:57;15.80;99.90
13665;DHT22;6905;50.770;6.730;2022-09-11T23:32:56;15.80;99.90
13665;DHT22;6905;50.770;6.730;2022-09-11T23:36:02;15.70;99.90
13665;DHT22;6905;50.770;6.730;2022-09-11T23:38:35;15.70;99.90
13665;DHT22;6905;50.770;6.730;2022-09-11T23:41:17;15.60;99.90
13665;DHT22;6905;50.770;6.730;2022-09-11T23:44:01;15.60;99.90
13665;DHT22;6905;50.770;6.730;2022-09-11T23:46:44;15.50;99.90
13665;DHT22;6905;50.770;6.730;2022-09-11T23:49:31;15.50;99.90
13665;DHT22;6905;50.770;6.730;2022-09-11T23:55:16;15.40;99.90
13665;DHT22;6905;50.770;6.730;2022-09-11T23:57:59;15.40;99.90
